Time;durP1;ratioP1;P1;durP2;ratioP2;P2;SDS_P1;SDS_P2;PMS_P1;PMS_P2;Temp;Humidity;BMP_temperature;BMP_pressure;BME280_temperature;BME280_humidity;BME280_pressure;Samples;Min_cycle;Max_cycle;Signal;HPM_P1;HPM_P2
2022/01/07 00:01:53;;;;;;;;;;;19.90;37.60;;;;;;5075403;28;19908;-58
2022/01/07 00:04:19;;;;;;;;;;;19.90;37.60;;;;;;5075043;28;20382;-58
2022/01/07 00:06:44;;;;;;;;;;;20.00;37.60;;;;;;5074992;28;19908;-59
2022/01/07 00:09:10;;;;;;;;;;;19.90;37.60;;;;;;5075002;28;19908;-58
2022/01/07 00:11:35;;;;;;;;;;;19.90;37.60;;;;;;5073622;28;19915;-58
2022/01/07 00:14:01;;;;;;;;;;;19.90;37.60;;;;;;5075044;28;19958;-58
2022/01/07 00:16:26;;;;;;;;;;;19.80;37.60;;;;;;5075069;28;19908;-59
2022/01/07 00:18:52;;;;;;;;;;;19.90;37.60;;;;;;5074772;28;20271;-59
2022/01/07 00:21:17;;;;;;;;;;;19.90;37.60;;;;;;5074695;28;20447;-59
2022/01/07 00:23:43;;;;;;;;;;;19.80;37.60;;;;;;5074631;28;20283;-57
2022/01/07 00:26:08;;;;;;;;;;;19.80;37.50;;;;;;5074611;28;19914;-58
2022/01/07 00:28:34;;;;;;;;;;;19.80;37.60;;;;;;5074558;28;19953;-58
2022/01/07 00:30:59;;;;;;;;;;;19.80;37.50;;;;;;5074633;28;20003;-58
2022/01/07 00:33:25;;;;;;;;;;;19.80;37.50;;;;;;5074463;28;19916;-58
2022/01/07 00:35:52;;;;;;;;;;;19.80;37.50;;;;;;5074720;28;19909;-58
2022/01/07 00:38:18;;;;;;;;;;;19.80;37.50;;;;;;5074355;28;20360;-59
2022/01/07 00:40:43;;;;;;;;;;;19.70;37.50;;;;;;5074360;28;19908;-58
2022/01/07 00:43:09;;;;;;;;;;;19.80;37.50;;;;;;5074317;28;19908;-59
2022/01/07 00:45:34;;;;;;;;;;;19.80;37.40;;;;;;5074278;28;19909;-58
2022/01/07 00:48:00;;;;;;;;;;;19.80;37.50;;;;;;5074214;28;19908;-59
2022/01/07 00:50:27;;;;;;;;;;;19.70;37.40;;;;;;5072839;28;20410;-59
2022/01/07 00:52:52;;;;;;;;;;;19.70;37.40;;;;;;5073897;28;20380;-59
2022/01/07 00:55:18;;;;;;;;;;;19.70;37.40;;;;;;5074020;28;19915;-58
2022/01/07 00:57:44;;;;;;;;;;;19.70;37.50;;;;;;5073912;28;19909;-58
2022/01/07 01:00:11;;;;;;;;;;;19.70;37.50;;;;;;5073928;28;19916;-58
2022/01/07 01:02:36;;;;;;;;;;;19.70;37.40;;;;;;5073964;28;19908;-58
2022/01/07 01:05:03;;;;;;;;;;;19.70;37.50;;;;;;5073437;28;19913;-59
2022/01/07 01:07:29;;;;;;;;;;;19.70;37.50;;;;;;5073700;28;19908;-59
2022/01/07 01:09:55;;;;;;;;;;;19.60;37.40;;;;;;5074049;28;19915;-58
2022/01/07 01:12:20;;;;;;;;;;;19.60;37.40;;;;;;5072471;28;19916;-59
2022/01/07 01:14:45;;;;;;;;;;;19.70;37.40;;;;;;5073765;28;19909;-59
2022/01/07 01:17:11;;;;;;;;;;;19.60;37.40;;;;;;5073749;28;19916;-58
2022/01/07 01:19:37;;;;;;;;;;;19.70;37.50;;;;;;5073674;28;19977;-58
2022/01/07 01:22:02;;;;;;;;;;;19.60;37.40;;;;;;5073948;28;19995;-59
2022/01/07 01:24:28;;;;;;;;;;;19.60;37.40;;;;;;5073521;28;19908;-58
2022/01/07 01:26:53;;;;;;;;;;;19.60;37.30;;;;;;5073819;28;19944;-59
2022/01/07 01:29:21;;;;;;;;;;;19.60;37.40;;;;;;5073502;28;19909;-58
2022/01/07 01:31:46;;;;;;;;;;;19.60;37.40;;;;;;5073448;28;19908;-58
2022/01/07 01:34:13;;;;;;;;;;;19.60;37.40;;;;;;5073486;28;19923;-59
2022/01/07 01:36:38;;;;;;;;;;;19.60;37.40;;;;;;5073482;28;20311;-59
2022/01/07 01:39:04;;;;;;;;;;;19.60;37.40;;;;;;5055443;28;19976;-59
2022/01/07 01:41:29;;;;;;;;;;;19.60;37.40;;;;;;5073706;28;20004;-58
2022/01/07 01:43:55;;;;;;;;;;;19.50;37.40;;;;;;5073758;28;20326;-58
2022/01/07 01:46:20;;;;;;;;;;;19.50;37.40;;;;;;5073378;28;19909;-59
2022/01/07 01:48:46;;;;;;;;;;;19.50;37.40;;;;;;5073388;28;19912;-58
2022/01/07 01:51:12;;;;;;;;;;;19.50;37.40;;;;;;5073601;28;19938;-58
2022/01/07 01:53:38;;;;;;;;;;;19.50;37.30;;;;;;5073133;28;20326;-58
2022/01/07 01:56:04;;;;;;;;;;;19.50;37.40;;;;;;5073285;28;19913;-59
2022/01/07 01:58:29;;;;;;;;;;;19.50;37.30;;;;;;5073116;28;20395;-58
2022/01/07 02:00:55;;;;;;;;;;;19.50;37.30;;;;;;5073609;28;19908;-58
2022/01/07 02:03:20;;;;;;;;;;;19.50;37.30;;;;;;5073399;28;19908;-58
2022/01/07 02:05:46;;;;;;;;;;;19.50;37.30;;;;;;5073227;28;19931;-58
2022/01/07 02:08:12;;;;;;;;;;;19.50;37.30;;;;;;5073348;28;19915;-58
2022/01/07 02:10:37;;;;;;;;;;;19.50;37.40;;;;;;5073430;28;19995;-58
2022/01/07 02:13:03;;;;;;;;;;;19.50;37.40;;;;;;5073114;28;19970;-59
2022/01/07 02:15:29;;;;;;;;;;;19.50;37.40;;;;;;5071811;28;20271;-58
2022/01/07 02:17:54;;;;;;;;;;;19.50;37.30;;;;;;5075747;28;19954;-59
2022/01/07 02:20:22;;;;;;;;;;;19.50;37.30;;;;;;5076973;28;19912;-59
2022/01/07 02:22:48;;;;;;;;;;;19.50;37.40;;;;;;5076985;28;19915;-58
2022/01/07 02:25:13;;;;;;;;;;;19.50;37.30;;;;;;5077238;28;19909;-59
2022/01/07 02:27:40;;;;;;;;;;;19.40;37.30;;;;;;5077201;28;20337;-58
2022/01/07 02:30:07;;;;;;;;;;;19.50;37.30;;;;;;5077143;28;19909;-59
2022/01/07 02:32:32;;;;;;;;;;;19.40;37.30;;;;;;5058741;28;19924;-58
2022/01/07 02:34:58;;;;;;;;;;;19.50;37.30;;;;;;5058833;28;19908;-59
2022/01/07 02:37:23;;;;;;;;;;;19.40;37.30;;;;;;5076698;28;19932;-59
2022/01/07 02:39:49;;;;;;;;;;;19.50;37.30;;;;;;5076678;28;19909;-58
2022/01/07 02:42:15;;;;;;;;;;;19.50;37.30;;;;;;5076604;28;19908;-58
2022/01/07 02:44:40;;;;;;;;;;;19.40;37.30;;;;;;5076556;28;19908;-58
2022/01/07 02:47:06;;;;;;;;;;;19.50;37.30;;;;;;5076566;28;19908;-59
2022/01/07 02:49:32;;;;;;;;;;;19.40;37.40;;;;;;5077015;28;19914;-58
2022/01/07 02:51:57;;;;;;;;;;;19.40;37.40;;;;;;5076312;28;19939;-59
2022/01/07 02:54:22;;;;;;;;;;;19.40;37.50;;;;;;5076410;28;20284;-59
2022/01/07 02:56:48;;;;;;;;;;;19.40;37.50;;;;;;5058347;28;20275;-59
2022/01/07 02:59:13;;;;;;;;;;;19.40;37.50;;;;;;5076141;28;19927;-59
2022/01/07 03:01:39;;;;;;;;;;;19.30;37.60;;;;;;5076143;28;19963;-59
2022/01/07 03:04:06;;;;;;;;;;;19.30;37.60;;;;;;5076315;28;19908;-59
2022/01/07 03:06:32;;;;;;;;;;;19.30;37.60;;;;;;5076293;28;19915;-59
2022/01/07 03:08:57;;;;;;;;;;;19.30;37.60;;;;;;5076208;28;19916;-59
2022/01/07 03:11:23;;;;;;;;;;;19.30;37.60;;;;;;5076174;28;20276;-58
2022/01/07 03:13:49;;;;;;;;;;;19.30;37.60;;;;;;5076010;28;19916;-59
2022/01/07 03:16:15;;;;;;;;;;;19.30;37.60;;;;;;5076019;28;20391;-58
2022/01/07 03:18:41;;;;;;;;;;;19.30;37.60;;;;;;5075932;28;20021;-59
2022/01/07 03:21:06;;;;;;;;;;;19.30;37.60;;;;;;5075821;28;19909;-58
2022/01/07 03:23:32;;;;;;;;;;;19.30;37.60;;;;;;5075946;28;20023;-59
2022/01/07 03:25:57;;;;;;;;;;;19.30;37.60;;;;;;5075739;28;19912;-59
2022/01/07 03:28:23;;;;;;;;;;;19.30;37.60;;;;;;5075423;28;19908;-59
2022/01/07 03:30:49;;;;;;;;;;;19.30;37.60;;;;;;5075746;28;20007;-59
2022/01/07 03:33:15;;;;;;;;;;;19.30;37.60;;;;;;5075624;28;19917;-59
2022/01/07 03:35:41;;;;;;;;;;;19.20;37.60;;;;;;5075666;28;19920;-59
2022/01/07 03:38:06;;;;;;;;;;;19.30;37.70;;;;;;5075658;28;19915;-58
2022/01/07 03:40:32;;;;;;;;;;;19.20;37.60;;;;;;5075564;28;20283;-58
2022/01/07 03:42:58;;;;;;;;;;;19.20;37.70;;;;;;5075531;28;19954;-59
2022/01/07 03:45:23;;;;;;;;;;;19.20;37.70;;;;;;5075802;28;19909;-59
2022/01/07 03:47:49;;;;;;;;;;;19.20;37.70;;;;;;5075372;28;19923;-59
2022/01/07 03:50:16;;;;;;;;;;;19.20;37.70;;;;;;5075375;28;19999;-57
2022/01/07 03:52:42;;;;;;;;;;;19.20;37.70;;;;;;5075176;28;19959;-59
2022/01/07 03:55:10;;;;;;;;;;;19.20;37.70;;;;;;5075417;28;20388;-59
2022/01/07 03:57:35;;;;;;;;;;;19.10;37.60;;;;;;5075173;28;19914;-58
2022/01/07 04:00:01;;;;;;;;;;;19.20;37.70;;;;;;5075436;28;19917;-59
2022/01/07 04:02:26;;;;;;;;;;;19.20;37.70;;;;;;5075129;28;20557;-59
2022/01/07 04:04:52;;;;;;;;;;;19.20;37.60;;;;;;5075039;28;19912;-59
2022/01/07 04:07:17;;;;;;;;;;;19.20;37.60;;;;;;5075039;28;19915;-59
2022/01/07 04:09:43;;;;;;;;;;;19.20;37.60;;;;;;5075029;28;20284;-58
2022/01/07 04:12:08;;;;;;;;;;;19.20;37.60;;;;;;5075101;28;20279;-58
2022/01/07 04:14:34;;;;;;;;;;;19.20;37.60;;;;;;5074986;28;19908;-58
2022/01/07 04:17:00;;;;;;;;;;;19.20;37.70;;;;;;5075060;28;19913;-59
2022/01/07 04:19:26;;;;;;;;;;;19.20;37.70;;;;;;5075018;28;19959;-59
2022/01/07 04:21:51;;;;;;;;;;;19.10;37.70;;;;;;5074770;28;20352;-58
2022/01/07 04:24:17;;;;;;;;;;;19.10;37.70;;;;;;5074844;28;20360;-58
2022/01/07 04:26:43;;;;;;;;;;;19.20;37.70;;;;;;5074788;28;19960;-59
2022/01/07 04:29:08;;;;;;;;;;;19.10;37.70;;;;;;5074654;28;20003;-58
2022/01/07 04:31:34;;;;;;;;;;;19.10;37.70;;;;;;5074494;28;20334;-59
2022/01/07 04:33:59;;;;;;;;;;;19.10;37.80;;;;;;5074395;28;19939;-59
2022/01/07 04:36:25;;;;;;;;;;;19.10;37.70;;;;;;5073229;28;19951;-60
2022/01/07 04:38:50;;;;;;;;;;;19.10;37.80;;;;;;5074225;28;20364;-59
2022/01/07 04:41:16;;;;;;;;;;;19.10;37.80;;;;;;5073834;28;19909;-59
2022/01/07 04:43:41;;;;;;;;;;;19.10;37.80;;;;;;5056382;28;19954;-58
2022/01/07 04:46:06;;;;;;;;;;;19.10;37.80;;;;;;5074211;28;19915;-59
2022/01/07 04:48:32;;;;;;;;;;;19.10;37.80;;;;;;5072952;28;19944;-58
2022/01/07 04:50:57;;;;;;;;;;;19.10;37.70;;;;;;5074138;28;19908;-58
2022/01/07 04:53:23;;;;;;;;;;;19.10;37.70;;;;;;5073897;28;19924;-59
2022/01/07 04:55:48;;;;;;;;;;;19.10;37.70;;;;;;5074087;28;20381;-59
2022/01/07 04:58:14;;;;;;;;;;;19.10;37.70;;;;;;5073915;28;19920;-58
2022/01/07 05:00:41;;;;;;;;;;;19.10;37.70;;;;;;5073879;28;20426;-58
2022/01/07 05:03:07;;;;;;;;;;;19.00;37.70;;;;;;5074234;28;19962;-59
2022/01/07 05:05:32;;;;;;;;;;;19.10;37.80;;;;;;5073889;28;19912;-58
2022/01/07 05:07:58;;;;;;;;;;;19.00;37.70;;;;;;5073924;28;19908;-58
2022/01/07 05:10:23;;;;;;;;;;;19.00;37.80;;;;;;5072567;28;19916;-59
2022/01/07 05:12:49;;;;;;;;;;;19.10;37.80;;;;;;5073725;28;19916;-58
2022/01/07 05:15:15;;;;;;;;;;;19.00;37.80;;;;;;5074022;28;19908;-58
2022/01/07 05:17:42;;;;;;;;;;;19.00;37.70;;;;;;5073689;28;20318;-58
2022/01/07 05:20:07;;;;;;;;;;;19.10;37.70;;;;;;5073967;28;19909;-58
2022/01/07 05:22:33;;;;;;;;;;;19.10;37.70;;;;;;5073644;28;19957;-58
2022/01/07 05:24:58;;;;;;;;;;;19.10;37.60;;;;;;5073925;28;19908;-58
2022/01/07 05:27:24;;;;;;;;;;;19.10;37.60;;;;;;5073645;28;20432;-59
2022/01/07 05:29:49;;;;;;;;;;;19.20;37.50;;;;;;5073544;28;19931;-59
2022/01/07 05:32:15;;;;;;;;;;;19.20;37.60;;;;;;5073513;28;19912;-59
2022/01/07 05:34:40;;;;;;;;;;;19.20;37.50;;;;;;5073680;28;19918;-58
2022/01/07 05:37:07;;;;;;;;;;;19.20;37.40;;;;;;5055941;28;20339;-59
2022/01/07 05:39:32;;;;;;;;;;;19.20;37.50;;;;;;5073443;28;19908;-59
2022/01/07 05:41:59;;;;;;;;;;;19.20;37.40;;;;;;5073423;28;19915;-59
2022/01/07 05:44:25;;;;;;;;;;;19.30;37.40;;;;;;5072157;28;19916;-59
2022/01/07 05:46:50;;;;;;;;;;;19.30;37.40;;;;;;5073572;28;20136;-58
2022/01/07 05:49:16;;;;;;;;;;;19.30;37.40;;;;;;5073527;28;20283;-59
2022/01/07 05:51:41;;;;;;;;;;;19.30;37.40;;;;;;5073565;28;19912;-59
2022/01/07 05:54:07;;;;;;;;;;;19.30;37.40;;;;;;5073321;28;19961;-59
2022/01/07 05:56:33;;;;;;;;;;;19.30;37.40;;;;;;5073313;28;19912;-59
2022/01/07 05:58:58;;;;;;;;;;;19.40;37.40;;;;;;5073021;28;19928;-59
2022/01/07 06:01:24;;;;;;;;;;;19.40;37.40;;;;;;5073490;28;20352;-59
2022/01/07 06:03:49;;;;;;;;;;;19.40;37.40;;;;;;5073463;28;19950;-58
2022/01/07 06:06:14;;;;;;;;;;;19.40;37.40;;;;;;5073334;28;19962;-59
2022/01/07 06:08:40;;;;;;;;;;;19.50;37.40;;;;;;5073213;28;19912;-59
2022/01/07 06:11:05;;;;;;;;;;;19.50;37.40;;;;;;5055286;28;19909;-59
2022/01/07 06:13:31;;;;;;;;;;;19.50;37.40;;;;;;5073047;28;19923;-58
2022/01/07 06:15:56;;;;;;;;;;;19.50;37.30;;;;;;5071884;28;19909;-58
2022/01/07 06:18:22;;;;;;;;;;;19.50;37.40;;;;;;5073211;28;20390;-57
2022/01/07 06:20:47;;;;;;;;;;;19.50;37.40;;;;;;5073079;28;19908;-58
2022/01/07 06:23:13;;;;;;;;;;;19.50;37.40;;;;;;5072965;28;19913;-58
2022/01/07 06:25:38;;;;;;;;;;;19.50;37.40;;;;;;5072936;28;19909;-58
2022/01/07 06:28:04;;;;;;;;;;;19.50;37.30;;;;;;5073288;28;19908;-58
2022/01/07 06:30:29;;;;;;;;;;;19.50;37.30;;;;;;5072995;28;19917;-59
2022/01/07 06:32:55;;;;;;;;;;;19.50;37.30;;;;;;5072872;28;19917;-59
2022/01/07 06:35:20;;;;;;;;;;;19.50;37.30;;;;;;5072862;28;19994;-59
2022/01/07 06:37:46;;;;;;;;;;;19.60;37.30;;;;;;5072944;28;19908;-59
2022/01/07 06:40:11;;;;;;;;;;;19.60;37.30;;;;;;5073011;28;19908;-58
2022/01/07 06:42:37;;;;;;;;;;;19.60;37.30;;;;;;5072802;28;19912;-59
2022/01/07 06:45:04;;;;;;;;;;;19.60;37.30;;;;;;5072782;28;19943;-59
2022/01/07 06:47:29;;;;;;;;;;;19.60;37.30;;;;;;5072707;28;19909;-58
2022/01/07 06:49:55;;;;;;;;;;;19.60;37.30;;;;;;5073006;28;20008;-58
2022/01/07 06:52:20;;;;;;;;;;;19.70;37.20;;;;;;5072606;28;19966;-58
2022/01/07 06:54:46;;;;;;;;;;;19.60;37.20;;;;;;5054769;28;19927;-58
2022/01/07 06:57:11;;;;;;;;;;;19.70;37.30;;;;;;5072700;28;20007;-58
2022/01/07 06:59:37;;;;;;;;;;;19.70;37.30;;;;;;5072588;28;19920;-59
2022/01/07 07:02:02;;;;;;;;;;;19.70;37.20;;;;;;5072584;28;20392;-59
2022/01/07 07:04:29;;;;;;;;;;;19.70;37.30;;;;;;5075836;28;20322;-59
2022/01/07 07:06:55;;;;;;;;;;;19.80;37.30;;;;;;5076190;28;19908;-58
2022/01/07 07:09:20;;;;;;;;;;;19.70;37.30;;;;;;5076131;28;19908;-59
2022/01/07 07:11:46;;;;;;;;;;;19.80;37.20;;;;;;5076060;28;19912;-59
2022/01/07 07:14:12;;;;;;;;;;;19.80;37.30;;;;;;5075922;28;19916;-58
2022/01/07 07:16:38;;;;;;;;;;;19.80;37.20;;;;;;5076151;28;19916;-59
2022/01/07 07:19:03;;;;;;;;;;;19.80;37.20;;;;;;5076229;28;19916;-59
2022/01/07 07:21:29;;;;;;;;;;;19.80;37.20;;;;;;5076053;28;19909;-58
2022/01/07 07:23:54;;;;;;;;;;;19.80;37.20;;;;;;5076190;28;20363;-58
2022/01/07 07:26:20;;;;;;;;;;;19.80;37.30;;;;;;5075838;28;20382;-58
2022/01/07 07:28:46;;;;;;;;;;;19.80;37.30;;;;;;5075790;28;20046;-58
2022/01/07 07:31:15;;;;;;;;;;;19.90;37.30;;;;;;5075905;28;19912;-58
2022/01/07 07:36:30;;;;;;;;;;;19.80;37.30;;;;;;5075971;28;19995;-59
2022/01/07 07:39:00;;;;;;;;;;;19.90;37.30;;;;;;5075671;28;19943;-59
2022/01/07 07:41:26;;;;;;;;;;;19.90;37.30;;;;;;5075797;28;20363;-59
2022/01/07 07:43:51;;;;;;;;;;;19.90;37.30;;;;;;5075745;28;19952;-58
2022/01/07 07:46:17;;;;;;;;;;;19.90;37.30;;;;;;5075425;28;19912;-58
2022/01/07 07:48:43;;;;;;;;;;;19.90;37.30;;;;;;5075413;28;19913;-59
2022/01/07 07:51:08;;;;;;;;;;;19.90;37.30;;;;;;5075649;28;19909;-59
2022/01/07 07:53:34;;;;;;;;;;;19.90;37.30;;;;;;5075240;28;19972;-59
2022/01/07 07:55:59;;;;;;;;;;;19.90;37.30;;;;;;5075292;28;19908;-59
2022/01/07 07:58:27;;;;;;;;;;;19.90;37.30;;;;;;5050496;28;19975;-59
2022/01/07 08:00:52;;;;;;;;;;;20.00;37.30;;;;;;5035381;28;19920;-60
2022/01/07 08:03:19;;;;;;;;;;;20.00;37.20;;;;;;5035241;28;19909;-59
2022/01/07 08:05:45;;;;;;;;;;;20.00;37.30;;;;;;5035083;28;19909;-59
2022/01/07 08:08:10;;;;;;;;;;;20.00;37.20;;;;;;5034912;28;19920;-59
2022/01/07 08:10:44;;;;;;;;;;;20.00;37.30;;;;;;5034981;28;19909;-59
2022/01/07 08:18:22;;;;;;;;;;;20.00;37.30;;;;;;5035273;28;19916;-59
2022/01/07 08:20:47;;;;;;;;;;;20.00;37.20;;;;;;5035125;28;19917;-59
2022/01/07 08:23:13;;;;;;;;;;;20.00;37.30;;;;;;5035068;28;19909;-59
2022/01/07 08:25:38;;;;;;;;;;;20.00;37.30;;;;;;5034824;28;19909;-58
2022/01/07 08:28:05;;;;;;;;;;;20.00;37.30;;;;;;5034632;28;19915;-58
2022/01/07 08:30:37;;;;;;;;;;;20.10;37.20;;;;;;5034848;28;19949;-58
2022/01/07 08:35:49;;;;;;;;;;;20.00;37.20;;;;;;5034896;28;19932;-58
2022/01/07 08:38:15;;;;;;;;;;;20.10;37.30;;;;;;5034459;28;20353;-58
2022/01/07 08:40:41;;;;;;;;;;;20.10;37.30;;;;;;5049710;28;19913;-58
2022/01/07 08:43:06;;;;;;;;;;;20.10;37.30;;;;;;5034393;28;19909;-58
2022/01/07 08:45:32;;;;;;;;;;;20.10;37.30;;;;;;5034192;28;19915;-58
2022/01/07 08:47:59;;;;;;;;;;;20.10;37.30;;;;;;5034285;28;19909;-58
2022/01/07 08:50:24;;;;;;;;;;;20.10;37.30;;;;;;5034185;28;19909;-58
2022/01/07 08:52:50;;;;;;;;;;;20.10;37.40;;;;;;5033950;28;19987;-58
2022/01/07 08:55:16;;;;;;;;;;;20.10;37.30;;;;;;5033977;28;19955;-59
2022/01/07 08:57:41;;;;;;;;;;;20.10;37.20;;;;;;5036691;28;20320;-58
2022/01/07 09:00:07;;;;;;;;;;;20.20;37.30;;;;;;5073756;28;19955;-58
2022/01/07 09:02:33;;;;;;;;;;;20.20;37.30;;;;;;5073587;28;20329;-58
2022/01/07 09:04:58;;;;;;;;;;;20.20;37.30;;;;;;5055806;28;20003;-58
2022/01/07 09:07:24;;;;;;;;;;;20.20;37.30;;;;;;5073608;28;19956;-58
2022/01/07 09:09:49;;;;;;;;;;;20.20;37.30;;;;;;5073598;28;19908;-58
2022/01/07 09:12:14;;;;;;;;;;;20.20;37.30;;;;;;5073327;28;19919;-57
2022/01/07 09:14:40;;;;;;;;;;;20.20;37.30;;;;;;5073696;28;19916;-58
2022/01/07 09:17:06;;;;;;;;;;;20.20;37.30;;;;;;5073441;28;19909;-58
2022/01/07 09:19:32;;;;;;;;;;;20.20;37.30;;;;;;5073546;28;19909;-58
2022/01/07 09:21:57;;;;;;;;;;;20.20;37.30;;;;;;5073699;28;19908;-59
2022/01/07 09:24:23;;;;;;;;;;;20.20;37.30;;;;;;5072192;28;20317;-59
2022/01/07 09:26:49;;;;;;;;;;;20.30;37.30;;;;;;5073315;28;19908;-58
2022/01/07 09:29:14;;;;;;;;;;;20.20;37.30;;;;;;5073302;28;19982;-58
2022/01/07 09:31:40;;;;;;;;;;;20.20;37.30;;;;;;5073541;28;20402;-58
2022/01/07 09:34:06;;;;;;;;;;;20.20;37.30;;;;;;5072470;28;19923;-58
2022/01/07 09:36:32;;;;;;;;;;;20.30;37.30;;;;;;5073459;28;19909;-58
2022/01/07 09:38:58;;;;;;;;;;;20.30;37.30;;;;;;5073322;28;19908;-58
2022/01/07 09:41:23;;;;;;;;;;;20.30;37.30;;;;;;5073285;28;20004;-58
2022/01/07 09:43:49;;;;;;;;;;;20.30;37.30;;;;;;5073223;28;19944;-58
2022/01/07 09:46:15;;;;;;;;;;;20.30;37.30;;;;;;5073056;28;19912;-58
2022/01/07 09:48:41;;;;;;;;;;;20.30;37.30;;;;;;5073116;28;20012;-58
2022/01/07 09:51:07;;;;;;;;;;;20.30;37.30;;;;;;5073192;28;19909;-58
2022/01/07 09:53:32;;;;;;;;;;;20.30;37.30;;;;;;5073283;28;19985;-57
2022/01/07 09:55:58;;;;;;;;;;;20.30;37.30;;;;;;5073046;28;19908;-58
2022/01/07 09:58:23;;;;;;;;;;;20.40;37.20;;;;;;5072778;28;19928;-58
2022/01/07 10:00:49;;;;;;;;;;;20.40;37.30;;;;;;5073110;28;19977;-58
2022/01/07 10:03:15;;;;;;;;;;;20.40;37.30;;;;;;5073001;28;19915;-58
2022/01/07 10:05:45;;;;;;;;;;;20.30;37.30;;;;;;5073197;28;19920;-58
2022/01/07 10:08:17;;;;;;;;;;;20.30;37.30;;;;;;5071856;28;19944;-59
2022/01/07 10:10:42;;;;;;;;;;;20.40;37.30;;;;;;5073054;28;19909;-58
2022/01/07 10:13:08;;;;;;;;;;;20.40;37.30;;;;;;5073085;28;19923;-58
2022/01/07 10:15:34;;;;;;;;;;;20.40;37.30;;;;;;5073107;28;19908;-58
2022/01/07 10:18:00;;;;;;;;;;;20.40;37.30;;;;;;5073021;28;19908;-58
2022/01/07 10:20:27;;;;;;;;;;;20.40;37.30;;;;;;5054755;28;20364;-59
2022/01/07 10:22:54;;;;;;;;;;;20.40;37.30;;;;;;5072842;28;20003;-58
2022/01/07 10:25:21;;;;;;;;;;;20.40;37.30;;;;;;5072768;28;19912;-57
2022/01/07 10:27:47;;;;;;;;;;;20.40;37.30;;;;;;5072814;28;20361;-58
2022/01/07 10:30:13;;;;;;;;;;;20.40;37.30;;;;;;5072742;28;19912;-58
2022/01/07 10:32:39;;;;;;;;;;;20.40;37.30;;;;;;5072581;28;19938;-58
2022/01/07 10:35:04;;;;;;;;;;;20.40;37.30;;;;;;5072565;28;19937;-58
2022/01/07 10:37:30;;;;;;;;;;;20.40;37.30;;;;;;5072751;28;19908;-59
2022/01/07 10:39:55;;;;;;;;;;;20.50;37.30;;;;;;5076349;28;20063;-58
2022/01/07 10:42:24;;;;;;;;;;;20.50;37.30;;;;;;5076344;28;19908;-58
2022/01/07 10:45:00;;;;;;;;;;;20.50;37.30;;;;;;5076323;28;20054;-58
2022/01/07 10:47:26;;;;;;;;;;;20.50;37.30;;;;;;5076390;28;19909;-59
2022/01/07 10:50:11;;;;;;;;;;;20.50;37.30;;;;;;5076332;28;19909;-57
2022/01/07 10:52:37;;;;;;;;;;;20.50;37.30;;;;;;5075547;28;19912;-58
2022/01/07 10:55:12;;;;;;;;;;;20.50;37.30;;;;;;5076208;28;20434;-59
2022/01/07 10:57:39;;;;;;;;;;;20.50;37.30;;;;;;5076003;28;19961;-59
2022/01/07 11:00:06;;;;;;;;;;;20.50;37.30;;;;;;5075768;28;19915;-59
2022/01/07 11:02:32;;;;;;;;;;;20.50;37.30;;;;;;5074799;28;19915;-59
2022/01/07 11:04:58;;;;;;;;;;;20.50;37.30;;;;;;5075806;28;20268;-59
2022/01/07 11:07:25;;;;;;;;;;;20.50;37.30;;;;;;5075212;28;22479;-59
2022/01/07 11:09:51;;;;;;;;;;;20.50;37.30;;;;;;5075940;28;19908;-59
2022/01/07 11:12:17;;;;;;;;;;;20.50;37.30;;;;;;5076111;28;19909;-59
2022/01/07 11:14:42;;;;;;;;;;;20.50;37.30;;;;;;5075479;28;19913;-58
2022/01/07 11:17:10;;;;;;;;;;;20.50;37.30;;;;;;5076170;28;19908;-58
2022/01/07 11:19:41;;;;;;;;;;;20.50;37.30;;;;;;5074586;28;19947;-59
2022/01/07 11:22:11;;;;;;;;;;;20.50;37.30;;;;;;5075840;28;20390;-59
2022/01/07 11:24:37;;;;;;;;;;;20.50;37.30;;;;;;5075764;28;19952;-58
2022/01/07 11:27:16;;;;;;;;;;;20.50;37.20;;;;;;5075546;28;19965;-60
2022/01/07 11:29:47;;;;;;;;;;;20.50;37.30;;;;;;5075682;28;19961;-59
2022/01/07 11:32:42;;;;;;;;;;;20.50;37.30;;;;;;5075487;28;19909;-59
2022/01/07 11:35:16;;;;;;;;;;;20.50;37.30;;;;;;5073552;28;20364;-59
2022/01/07 11:37:43;;;;;;;;;;;20.50;37.30;;;;;;5075501;28;19908;-58
2022/01/07 11:40:08;;;;;;;;;;;20.50;37.30;;;;;;5075581;28;20269;-59
2022/01/07 11:42:38;;;;;;;;;;;20.50;37.30;;;;;;5075436;28;19916;-59
2022/01/07 11:45:23;;;;;;;;;;;20.60;37.30;;;;;;5075701;28;19913;-59
2022/01/07 11:47:49;;;;;;;;;;;20.60;37.30;;;;;;5075661;28;20083;-59
2022/01/07 11:50:14;;;;;;;;;;;20.60;37.30;;;;;;5075300;28;19970;-58
2022/01/07 11:52:40;;;;;;;;;;;20.60;37.30;;;;;;5075123;28;19948;-59
2022/01/07 11:55:21;;;;;;;;;;;20.60;37.20;;;;;;5075437;28;19993;-58
2022/01/07 11:57:54;;;;;;;;;;;20.60;37.30;;;;;;5075047;28;19961;-59
2022/01/07 12:00:39;;;;;;;;;;;20.60;37.30;;;;;;5075161;28;20432;-59
2022/01/07 12:03:04;;;;;;;;;;;20.60;37.30;;;;;;5075066;28;19915;-59
2022/01/07 12:05:33;;;;;;;;;;;20.60;37.30;;;;;;5074824;28;19908;-58
2022/01/07 12:07:58;;;;;;;;;;;20.60;37.30;;;;;;5074904;28;19915;-59
2022/01/07 12:10:24;;;;;;;;;;;20.60;37.30;;;;;;5075116;28;19908;-59
2022/01/07 12:12:57;;;;;;;;;;;20.60;37.30;;;;;;5074704;28;19920;-59
2022/01/07 12:15:22;;;;;;;;;;;20.60;37.30;;;;;;5074698;28;19908;-59
2022/01/07 12:17:48;;;;;;;;;;;20.60;37.30;;;;;;5074716;28;20300;-59
2022/01/07 12:20:19;;;;;;;;;;;20.60;37.30;;;;;;5074532;28;20272;-59
2022/01/07 12:22:45;;;;;;;;;;;20.60;37.30;;;;;;5074463;28;20009;-59
2022/01/07 12:25:11;;;;;;;;;;;20.70;37.30;;;;;;5074509;28;19916;-59
2022/01/07 12:27:36;;;;;;;;;;;20.70;37.30;;;;;;5074368;28;20318;-59
2022/01/07 12:30:02;;;;;;;;;;;20.70;37.30;;;;;;5074710;28;20307;-59
2022/01/07 12:32:29;;;;;;;;;;;20.60;37.30;;;;;;5074491;28;19963;-59
2022/01/07 12:34:55;;;;;;;;;;;20.70;37.30;;;;;;5074548;28;19966;-59
2022/01/07 12:37:21;;;;;;;;;;;20.70;37.30;;;;;;5074633;28;19943;-59
2022/01/07 12:39:51;;;;;;;;;;;20.70;37.30;;;;;;5074744;28;19959;-59
2022/01/07 12:42:17;;;;;;;;;;;20.70;37.30;;;;;;5074275;28;19915;-59
2022/01/07 12:44:52;;;;;;;;;;;20.70;37.30;;;;;;5074232;28;19912;-59
2022/01/07 12:47:19;;;;;;;;;;;20.70;37.30;;;;;;5074418;28;19908;-59
2022/01/07 12:49:46;;;;;;;;;;;20.70;37.30;;;;;;5074029;28;19935;-59
2022/01/07 12:52:19;;;;;;;;;;;20.70;37.30;;;;;;5074023;28;19913;-59
2022/01/07 12:54:52;;;;;;;;;;;20.70;37.20;;;;;;5074249;28;19913;-59
2022/01/07 12:57:25;;;;;;;;;;;20.70;37.20;;;;;;5073790;28;19959;-59
2022/01/07 13:00:09;;;;;;;;;;;20.70;37.30;;;;;;5073447;28;20380;-58
2022/01/07 13:02:34;;;;;;;;;;;20.70;37.30;;;;;;5073890;28;19912;-59
2022/01/07 13:05:26;;;;;;;;;;;20.70;37.30;;;;;;5073668;28;20425;-59
2022/01/07 13:07:54;;;;;;;;;;;20.70;37.30;;;;;;5069615;28;20329;-59
2022/01/07 13:10:21;;;;;;;;;;;20.70;37.30;;;;;;5073613;28;19909;-59
2022/01/07 13:13:13;;;;;;;;;;;20.80;37.30;;;;;;5073543;28;19912;-59
2022/01/07 13:15:48;;;;;;;;;;;20.80;37.30;;;;;;5085199;28;20350;-59
2022/01/07 13:18:14;;;;;;;;;;;20.80;37.30;;;;;;5073794;28;19919;-59
2022/01/07 13:20:39;;;;;;;;;;;20.80;37.20;;;;;;5073547;28;19908;-58
2022/01/07 13:23:04;;;;;;;;;;;20.80;37.20;;;;;;5073517;28;19915;-59
2022/01/07 13:25:30;;;;;;;;;;;20.80;37.30;;;;;;5073493;28;19916;-59
2022/01/07 13:27:55;;;;;;;;;;;20.80;37.30;;;;;;5073150;28;20280;-59
2022/01/07 13:30:40;;;;;;;;;;;20.80;37.20;;;;;;5055361;28;19915;-59
2022/01/07 13:33:06;;;;;;;;;;;20.80;37.30;;;;;;5073479;28;19924;-59
2022/01/07 13:35:32;;;;;;;;;;;20.80;37.30;;;;;;5073377;28;20379;-59
2022/01/07 13:37:57;;;;;;;;;;;20.80;37.30;;;;;;5073404;28;19948;-59
2022/01/07 13:40:30;;;;;;;;;;;20.80;37.30;;;;;;5073496;28;19962;-58
2022/01/07 13:43:12;;;;;;;;;;;20.80;37.30;;;;;;5073283;28;19916;-59
2022/01/07 13:45:38;;;;;;;;;;;20.80;37.30;;;;;;5073123;28;20404;-59
2022/01/07 13:48:05;;;;;;;;;;;20.80;37.30;;;;;;5073516;28;19915;-59
2022/01/07 13:50:32;;;;;;;;;;;20.80;37.30;;;;;;5073389;28;19908;-59
2022/01/07 13:53:08;;;;;;;;;;;20.80;37.30;;;;;;5073132;28;20501;-59
2022/01/07 13:55:34;;;;;;;;;;;20.80;37.30;;;;;;5073110;28;20444;-59
2022/01/07 13:58:05;;;;;;;;;;;20.80;37.30;;;;;;5072898;28;19948;-58
2022/01/07 14:00:31;;;;;;;;;;;20.80;37.30;;;;;;5072932;28;19920;-59
2022/01/07 14:02:56;;;;;;;;;;;20.80;37.30;;;;;;5071639;28;19909;-59
2022/01/07 14:05:21;;;;;;;;;;;20.80;37.30;;;;;;5072963;28;20003;-59
2022/01/07 14:07:48;;;;;;;;;;;20.80;37.30;;;;;;5073044;28;19954;-59
2022/01/07 14:10:17;;;;;;;;;;;20.80;37.30;;;;;;5073097;28;19935;-59
2022/01/07 14:13:00;;;;;;;;;;;20.80;37.30;;;;;;5075190;28;19919;-59
2022/01/07 14:15:26;;;;;;;;;;;20.80;37.30;;;;;;5076970;28;20003;-59
2022/01/07 14:18:15;;;;;;;;;;;20.90;37.40;;;;;;5077241;28;19909;-58
2022/01/07 14:20:49;;;;;;;;;;;20.80;37.40;;;;;;5076948;28;19915;-58
2022/01/07 14:23:24;;;;;;;;;;;20.80;37.40;;;;;;5076829;28;19916;-58
2022/01/07 14:25:51;;;;;;;;;;;20.80;37.30;;;;;;5076725;28;19966;-59